Time;durP1;ratioP1;P1;durP2;ratioP2;P2;SDS_P1;SDS_P2;PMS_P1;PMS_P2;Temp;Humidity;BMP_temperature;BMP_pressure;BME280_temperature;BME280_humidity;BME280_pressure;Samples;Min_cycle;Max_cycle;Signal;HPM_P1;HPM_P2
2022/02/08 00:01:43;;;;;;;13.95;3.70;;;;;;;5.41;100.00;102493.16;5136635;27;20370;-54
2022/02/08 00:04:11;;;;;;;15.60;3.72;;;;;;;5.39;100.00;102494.97;5136196;27;20469;-57
2022/02/08 00:06:43;;;;;;;10.20;3.47;;;;;;;5.42;100.00;102497.50;5136252;27;20046;-53
2022/02/08 00:09:13;;;;;;;12.70;3.50;;;;;;;5.38;100.00;102499.28;5135995;27;20051;-55
2022/02/08 00:11:41;;;;;;;19.40;4.25;;;;;;;5.44;100.00;102497.47;5136114;27;20051;-54
2022/02/08 00:14:10;;;;;;;15.25;4.25;;;;;;;5.42;100.00;102498.34;5136160;27;20047;-53
2022/02/08 00:16:39;;;;;;;15.30;3.80;;;;;;;5.46;100.00;102496.56;5136064;27;20047;-54
2022/02/08 00:19:07;;;;;;;14.80;4.15;;;;;;;5.48;100.00;102492.19;5136108;27;20057;-55
2022/02/08 00:21:35;;;;;;;15.90;4.63;;;;;;;5.48;100.00;102488.69;5136017;27;20066;-55
2022/02/08 00:24:04;;;;;;;14.27;4.28;;;;;;;5.45;100.00;102494.84;5135726;27;20047;-55
2022/02/08 00:26:32;;;;;;;16.30;5.20;;;;;;;5.44;100.00;102482.69;5135907;27;20035;-55
2022/02/08 00:29:00;;;;;;;16.67;4.10;;;;;;;5.40;100.00;102486.25;5135716;27;20122;-54
2022/02/08 00:31:28;;;;;;;15.75;4.90;;;;;;;5.46;100.00;102475.69;5135747;27;20478;-54
2022/02/08 00:33:58;;;;;;;20.10;5.18;;;;;;;5.39;100.00;102480.16;5135793;27;20111;-45
2022/02/08 00:36:26;;;;;;;18.02;5.30;;;;;;;5.33;100.00;102482.00;5135177;27;20100;-48
2022/02/08 00:38:54;;;;;;;12.00;4.70;;;;;;;5.37;100.00;102478.44;5135832;27;20046;-44
2022/02/08 00:41:24;;;;;;;19.30;5.47;;;;;;;5.34;100.00;102479.34;5135397;27;20528;-45
2022/02/08 00:43:57;;;;;;;16.55;5.97;;;;;;;5.31;100.00;102470.75;5117142;27;20077;-47
2022/02/08 00:46:33;;;;;;;21.20;5.72;;;;;;;5.31;100.00;102468.97;5135479;27;20057;-43
2022/02/08 00:49:04;;;;;;;19.98;5.57;;;;;;;5.32;100.00;102475.09;5135015;27;20049;-43
2022/02/08 00:51:40;;;;;;;17.35;6.35;;;;;;;5.36;100.00;102480.22;5134989;27;20043;-46
2022/02/08 00:54:10;;;;;;;13.90;5.65;;;;;;;5.34;100.00;102475.91;5135401;27;20043;-46
2022/02/08 00:56:38;;;;;;;16.20;5.43;;;;;;;5.35;100.00;102482.84;5135128;27;20047;-46
2022/02/08 00:59:07;;;;;;;14.98;5.55;;;;;;;5.32;100.00;102481.16;5132422;27;20043;-45
2022/02/08 01:01:37;;;;;;;18.88;6.10;;;;;;;5.35;100.00;102475.88;5132290;27;20070;-47
2022/02/08 01:04:09;;;;;;;16.38;6.75;;;;;;;5.42;100.00;102471.41;5134969;27;20046;-44
2022/02/08 01:06:38;;;;;;;17.40;5.15;;;;;;;5.44;100.00;102477.47;5133669;27;20053;-44
2022/02/08 01:09:13;;;;;;;15.77;5.70;;;;;;;5.34;100.00;102471.53;5130619;27;20049;-47
2022/02/08 01:11:42;;;;;;;21.23;6.75;;;;;;;5.39;100.00;102476.69;5134122;27;20047;-47
2022/02/08 01:14:11;;;;;;;22.38;6.95;;;;;;;5.37;100.00;102471.50;5135034;27;20391;-43
2022/02/08 01:16:39;;;;;;;24.73;7.65;;;;;;;5.32;100.00;102477.69;5133507;27;20043;-44
2022/02/08 01:19:08;;;;;;;23.40;7.35;;;;;;;5.30;100.00;102475.09;5130704;27;20413;-46
2022/02/08 01:21:37;;;;;;;24.55;7.72;;;;;;;5.29;100.00;102478.59;5133517;27;20374;-43
2022/02/08 01:24:06;;;;;;;20.42;7.28;;;;;;;5.29;100.00;102476.00;5134784;27;20394;-45
2022/02/08 01:26:43;;;;;;;19.63;8.10;;;;;;;5.31;100.00;102471.59;5134789;27;20057;-46
2022/02/08 01:29:21;;;;;;;22.42;8.85;;;;;;;5.27;100.00;102474.28;5134799;27;20377;-47
2022/02/08 01:31:51;;;;;;;29.60;8.80;;;;;;;5.24;100.00;102486.50;5134701;27;20047;-45
2022/02/08 01:34:34;;;;;;;24.60;8.85;;;;;;;5.36;100.00;102493.25;5134147;27;20054;-45
2022/02/08 01:37:20;;;;;;;18.02;9.13;;;;;;;5.35;100.00;102486.31;5134003;27;20053;-45
2022/02/08 01:40:03;;;;;;;18.75;8.82;;;;;;;5.43;100.00;102496.63;5134507;27;20390;-44
2022/02/08 01:42:42;;;;;;;23.52;8.95;;;;;;;5.38;100.00;102491.47;5133082;27;20051;-45
2022/02/08 01:45:36;;;;;;;22.80;9.68;;;;;;;5.46;100.00;102491.34;5134319;27;20435;-49
2022/02/08 01:48:11;;;;;;;23.38;9.70;;;;;;;5.45;100.00;102492.22;5134204;27;20054;-48
2022/02/08 01:50:42;;;;;;;26.80;11.00;;;;;;;5.48;100.00;102497.41;5134237;27;20346;-45
2022/02/08 01:53:11;;;;;;;22.48;10.95;;;;;;;5.46;100.00;102483.50;5134188;27;20045;-44
2022/02/08 01:55:40;;;;;;;21.45;11.65;;;;;;;5.41;100.00;102481.00;5133935;27;20141;-46
2022/02/08 01:58:22;;;;;;;26.70;12.80;;;;;;;5.41;100.00;102472.28;5134117;27;20051;-45
2022/02/08 02:00:50;;;;;;;28.08;12.23;;;;;;;5.48;100.00;102470.44;5133941;27;20305;-46
2022/02/08 02:03:19;;;;;;;26.88;13.13;;;;;;;5.50;100.00;102473.91;5133876;27;20043;-43
2022/02/08 02:05:51;;;;;;;27.30;13.48;;;;;;;5.57;100.00;102467.66;5134002;27;20053;-44
2022/02/08 02:08:19;;;;;;;33.08;14.00;;;;;;;5.53;100.00;102469.47;5133856;27;20126;-44
2022/02/08 02:10:47;;;;;;;30.02;15.07;;;;;;;5.51;100.00;102467.78;5134048;27;20103;-54
2022/02/08 02:13:29;;;;;;;30.88;14.50;;;;;;;5.53;100.00;102472.06;5115430;27;20043;-54
2022/02/08 02:15:58;;;;;;;27.92;13.93;;;;;;;5.53;100.00;102466.84;5133252;27;20123;-55
2022/02/08 02:18:26;;;;;;;30.75;15.68;;;;;;;5.56;100.00;102456.38;5133463;27;20039;-45
2022/02/08 02:20:55;;;;;;;28.13;15.27;;;;;;;5.58;100.00;102448.50;5133520;27;20061;-46
2022/02/08 02:23:24;;;;;;;31.73;15.85;;;;;;;5.60;100.00;102451.94;5133733;27;20054;-46
2022/02/08 02:25:54;;;;;;;30.67;15.65;;;;;;;5.65;100.00;102450.13;5133497;27;20047;-54
2022/02/08 02:28:22;;;;;;;32.03;16.02;;;;;;;5.66;100.00;102446.63;5133367;27;20042;-54
2022/02/08 02:30:50;;;;;;;31.52;17.25;;;;;;;5.68;100.00;102457.03;5133006;27;20439;-48
2022/02/08 02:33:18;;;;;;;32.95;16.90;;;;;;;5.68;100.00;102447.44;5130546;27;20358;-46
2022/02/08 02:35:48;;;;;;;32.00;17.67;;;;;;;5.67;100.00;102452.69;5129850;27;20500;-53
2022/02/08 02:38:16;;;;;;;40.22;18.63;;;;;;;5.74;100.00;102443.88;5133279;27;20043;-47
2022/02/08 02:40:45;;;;;;;31.90;18.17;;;;;;;5.81;100.00;102444.59;5133057;27;20104;-43
2022/02/08 02:43:15;;;;;;;39.47;18.58;;;;;;;5.83;100.00;102448.03;5133589;27;20493;-47
2022/02/08 02:45:43;;;;;;;40.42;20.75;;;;;;;5.81;100.00;102440.25;5133537;27;20485;-44
2022/02/08 02:48:11;;;;;;;36.90;19.33;;;;;;;5.86;100.00;102443.63;5132086;27;20447;-54
2022/02/08 02:50:39;;;;;;;37.42;18.45;;;;;;;5.86;100.00;102443.63;5128869;28;20050;-53
2022/02/08 02:53:07;;;;;;;42.13;19.65;;;;;;;5.89;100.00;102438.34;5130905;28;20051;-54
2022/02/08 02:55:36;;;;;;;40.25;21.42;;;;;;;5.93;100.00;102437.38;5128769;28;20039;-44
2022/02/08 02:58:06;;;;;;;36.42;20.60;;;;;;;5.93;100.00;102439.13;5128986;28;20062;-54
2022/02/08 03:00:39;;;;;;;40.80;20.10;;;;;;;5.98;100.00;102444.28;5133041;28;20050;-45
2022/02/08 03:03:21;;;;;;;36.53;19.55;;;;;;;6.00;100.00;102446.00;5133308;28;20051;-48
2022/02/08 03:06:07;;;;;;;41.70;21.77;;;;;;;6.01;100.00;102447.72;5133218;28;20042;-55
2022/02/08 03:19:39;;;;;;;45.90;22.90;;;;;;;6.20;100.00;102453.44;5133015;27;20047;-54
2022/02/08 03:22:07;;;;;;;42.50;22.23;;;;;;;6.31;100.00;102450.56;5131242;28;20122;-48
2022/02/08 03:24:35;;;;;;;44.65;23.13;;;;;;;6.25;100.00;102462.00;5128226;28;20058;-48
2022/02/08 03:27:04;;;;;;;48.05;22.60;;;;;;;6.29;100.00;102448.91;5133447;27;20096;-54
2022/02/08 03:29:32;;;;;;;45.67;23.27;;;;;;;6.30;100.00;102455.81;5133295;27;20054;-52
2022/02/08 03:32:01;;;;;;;44.92;21.75;;;;;;;6.28;100.00;102450.63;5133540;27;20088;-55
2022/02/08 03:34:29;;;;;;;40.13;21.63;;;;;;;6.35;100.00;102446.97;5118111;27;20099;-55
2022/02/08 03:36:57;;;;;;;46.47;22.73;;;;;;;6.33;100.00;102448.78;5136234;27;20059;-53
2022/02/08 03:39:33;;;;;;;49.88;22.08;;;;;;;6.39;100.00;102447.78;5132657;27;20454;-54
2022/02/08 03:42:08;;;;;;;46.90;23.15;;;;;;;6.46;100.00;102446.75;5132159;27;20061;-49
2022/02/08 03:44:36;;;;;;;46.63;22.67;;;;;;;6.46;100.00;102454.59;5136562;27;20062;-56
2022/02/08 03:47:07;;;;;;;50.13;23.52;;;;;;;6.49;100.00;102451.03;5136562;27;20047;-49
2022/02/08 03:49:35;;;;;;;47.40;22.10;;;;;;;6.50;100.00;102452.78;5136619;27;20065;-46
2022/02/08 03:52:05;;;;;;;49.78;24.45;;;;;;;6.51;100.00;102457.97;5133470;27;20047;-49
2022/02/08 03:54:33;;;;;;;49.45;22.50;;;;;;;6.58;100.00;102456.06;5131861;27;20051;-49
2022/02/08 03:57:03;;;;;;;43.70;21.88;;;;;;;6.55;100.00;102451.78;5136324;27;20054;-47
2022/02/08 03:59:31;;;;;;;45.75;22.58;;;;;;;6.63;100.00;102456.00;5136311;27;20114;-44
2022/02/08 04:02:16;;;;;;;42.65;20.83;;;;;;;6.64;100.00;102452.47;5136118;27;20043;-47
2022/02/08 04:04:54;;;;;;;40.60;20.42;;;;;;;6.67;100.00;102457.63;5135916;27;20481;-54
2022/02/08 04:07:25;;;;;;;37.88;20.25;;;;;;;6.69;100.00;102451.44;5135720;27;20259;-49
2022/02/08 04:10:00;;;;;;;40.20;20.10;;;;;;;6.73;100.00;102455.72;5131568;27;20047;-56
2022/02/08 04:12:36;;;;;;;37.92;17.90;;;;;;;6.72;100.00;102458.38;5134075;27;20130;-55
2022/02/08 04:15:22;;;;;;;38.85;19.55;;;;;;;6.76;100.00;102452.16;5136022;27;20412;-54
2022/02/08 04:18:13;;;;;;;43.28;18.65;;;;;;;6.80;100.00;102442.50;5136289;27;20066;-49
2022/02/08 04:32:13;;;;;;;32.85;16.27;;;;;;;6.98;100.00;102454.28;5083076;27;20051;-45
2022/02/08 04:45:52;;;;;;;35.47;17.23;;;;;;;7.06;100.00;102440.13;5131541;27;20074;-47
2022/02/08 04:48:42;;;;;;;29.70;14.65;;;;;;;7.11;100.00;102442.63;5135796;27;20454;-47
2022/02/08 04:51:17;;;;;;;32.08;16.67;;;;;;;7.15;100.00;102440.78;5134337;27;20129;-46
2022/02/08 04:53:53;;;;;;;30.17;16.13;;;;;;;7.18;100.00;102433.72;5131716;27;20515;-48
2022/02/08 04:56:32;;;;;;;32.42;15.82;;;;;;;7.17;100.00;102424.16;5133275;27;20066;-45
2022/02/08 04:59:14;;;;;;;30.00;15.95;;;;;;;7.13;100.00;102424.25;5135176;27;20054;-46
2022/02/08 05:01:59;;;;;;;31.27;16.10;;;;;;;7.20;100.00;102429.31;5134597;27;20043;-47
2022/02/08 05:27:47;;;;;;;27.30;13.75;;;;;;;7.15;100.00;102418.09;5134628;27;20055;-46
2022/02/08 05:35:45;;;;;;;27.23;13.75;;;;;;;7.14;100.00;102432.06;5131125;27;20868;-45
2022/02/08 05:49:24;;;;;;;27.13;13.57;;;;;;;7.14;100.00;102420.75;5123001;27;20059;-49
2022/02/08 05:52:21;;;;;;;24.02;13.25;;;;;;;7.16;100.00;102417.19;5131077;27;20497;-45
2022/02/08 05:54:49;;;;;;;22.67;11.65;;;;;;;7.18;100.00;102419.78;5133994;27;20490;-46
2022/02/08 05:57:18;;;;;;;30.83;14.23;;;;;;;7.20;100.00;102413.59;5134036;27;20081;-55
2022/02/08 05:59:48;;;;;;;25.88;13.15;;;;;;;7.18;100.00;102422.38;5134005;27;20035;-46
2022/02/08 06:02:18;;;;;;;28.45;13.43;;;;;;;7.17;100.00;102418.06;5133817;27;20053;-44
2022/02/08 06:04:48;;;;;;;25.70;12.98;;;;;;;7.23;100.00;102423.13;5134148;27;20417;-45
2022/02/08 06:07:20;;;;;;;22.98;13.45;;;;;;;7.20;100.00;102418.84;5115416;27;20390;-54
2022/02/08 06:09:51;;;;;;;21.92;12.10;;;;;;;7.19;100.00;102416.25;5133874;27;20051;-55
2022/02/08 06:12:22;;;;;;;27.58;11.90;;;;;;;7.26;100.00;102416.03;5134218;27;20043;-45
2022/02/08 06:14:57;;;;;;;26.85;12.52;;;;;;;7.20;100.00;102411.00;5134051;27;20378;-44
2022/02/08 06:17:25;;;;;;;25.58;12.27;;;;;;;7.26;100.00;102415.19;5133826;27;20441;-47
2022/02/08 06:19:55;;;;;;;26.00;12.80;;;;;;;7.24;100.00;102422.22;5133704;27;20084;-55
2022/02/08 06:22:23;;;;;;;23.85;12.80;;;;;;;7.17;100.00;102418.94;5133791;27;20043;-54
2022/02/08 06:24:52;;;;;;;22.23;12.07;;;;;;;7.22;100.00;102430.13;5134052;27;20448;-45
2022/02/08 06:27:28;;;;;;;26.27;12.52;;;;;;;7.18;100.00;102433.72;5133692;27;20051;-56
2022/02/08 06:29:58;;;;;;;24.30;11.73;;;;;;;7.17;100.00;102437.25;5131733;27;20065;-46
2022/02/08 06:32:27;;;;;;;23.45;13.02;;;;;;;7.16;100.00;102437.25;5130347;27;20572;-44
2022/02/08 06:34:57;;;;;;;24.52;12.75;;;;;;;7.13;100.00;102440.84;5132920;27;20127;-49
2022/02/08 06:37:28;;;;;;;25.85;13.23;;;;;;;7.10;100.00;102435.66;5132869;27;20047;-50
2022/02/08 06:39:57;;;;;;;22.67;12.68;;;;;;;7.10;100.00;102439.16;5128479;27;20755;-48
2022/02/08 06:42:25;;;;;;;21.70;11.88;;;;;;;7.09;100.00;102441.81;5130995;27;20051;-56
2022/02/08 06:44:53;;;;;;;27.23;13.18;;;;;;;7.10;100.00;102443.50;5133556;27;20406;-46
2022/02/08 06:47:23;;;;;;;24.98;12.73;;;;;;;7.04;100.00;102446.28;5133485;27;20047;-55
2022/02/08 06:49:51;;;;;;;23.73;12.65;;;;;;;7.05;100.00;102454.09;5129126;28;20053;-56
2022/02/08 06:52:20;;;;;;;23.35;12.93;;;;;;;6.98;100.00;102452.53;5130282;27;20065;-49
2022/02/08 06:54:49;;;;;;;26.88;12.32;;;;;;;7.01;100.00;102460.31;5133507;28;20055;-56
2022/02/08 06:57:18;;;;;;;26.65;11.95;;;;;;;7.02;100.00;102466.38;5133224;28;20043;-56
2022/02/08 06:59:51;;;;;;;23.73;11.70;;;;;;;7.03;100.00;102468.97;5132726;28;20039;-56
2022/02/08 07:02:19;;;;;;;;;;;;;;;6.98;100.00;102467.34;5133167;27;20088;-45
2022/02/08 07:04:48;;;;;;;22.90;11.18;;;;;;;6.99;100.00;102469.09;5134203;27;19945;-55
2022/02/08 07:07:16;;;;;;;24.25;12.70;;;;;;;6.96;100.00;102469.16;5137618;27;20058;-45
2022/02/08 07:09:45;;;;;;;24.63;13.25;;;;;;;6.96;100.00;102464.78;5137264;27;20039;-56
2022/02/08 07:12:14;;;;;;;23.00;13.15;;;;;;;6.95;100.00;102468.28;5137347;27;20051;-46
2022/02/08 07:14:44;;;;;;;24.85;12.70;;;;;;;6.91;100.00;102472.75;5133747;27;20232;-45
2022/02/08 07:17:12;;;;;;;26.40;13.18;;;;;;;6.93;100.00;102467.47;5134909;27;20469;-45
2022/02/08 07:19:40;;;;;;;26.50;14.55;;;;;;;6.88;100.00;102472.81;5137147;27;20100;-55
2022/02/08 07:22:09;;;;;;;26.60;14.48;;;;;;;6.88;100.00;102472.81;5137115;27;20070;-55
2022/02/08 07:24:37;;;;;;;30.05;15.07;;;;;;;6.88;100.00;102478.03;5137273;27;20100;-45
2022/02/08 07:27:06;;;;;;;25.65;14.63;;;;;;;6.90;100.00;102478.88;5137074;27;20100;-57
2022/02/08 07:29:38;;;;;;;28.60;14.95;;;;;;;6.89;100.00;102485.00;5136865;27;20051;-46
2022/02/08 07:32:08;;;;;;;26.80;14.88;;;;;;;6.94;100.00;102485.75;5137238;27;20043;-56
2022/02/08 07:34:42;;;;;;;27.73;14.40;;;;;;;6.97;100.00;102487.44;5136760;27;20039;-46
2022/02/08 07:37:17;;;;;;;25.52;14.23;;;;;;;6.99;100.00;102487.41;5133709;27;20070;-47
2022/02/08 07:39:48;;;;;;;30.58;13.80;;;;;;;7.02;100.00;102489.94;5132472;27;20104;-56
2022/02/08 07:42:16;;;;;;;26.65;13.48;;;;;;;7.08;100.00;102490.66;5136824;27;20439;-56
2022/02/08 07:44:46;;;;;;;26.30;13.77;;;;;;;7.10;100.00;102490.59;5134415;27;20054;-47
2022/02/08 07:47:14;;;;;;;29.90;14.88;;;;;;;7.06;100.00;102492.44;5133008;27;20055;-46
2022/02/08 07:49:42;;;;;;;28.15;14.30;;;;;;;7.11;100.00;102497.56;5135759;27;20059;-56
2022/02/08 07:52:12;;;;;;;24.08;13.07;;;;;;;7.13;100.00;102495.78;5132471;27;20047;-57
2022/02/08 07:54:40;;;;;;;23.88;12.57;;;;;;;7.13;100.00;102493.16;5132502;27;20051;-48
2022/02/08 07:57:08;;;;;;;26.92;13.52;;;;;;;7.16;100.00;102494.81;5136450;27;20050;-45
2022/02/08 07:59:36;;;;;;;25.08;13.25;;;;;;;7.24;100.00;102491.13;5136306;27;20049;-50
2022/02/08 08:02:05;;;;;;;21.45;11.27;;;;;;;7.21;100.00;102487.72;5136362;27;20050;-48
2022/02/08 08:04:33;;;;;;;22.95;11.18;;;;;;;7.24;100.00;102490.25;5135898;27;20055;-56
2022/02/08 08:07:01;;;;;;;23.73;11.20;;;;;;;7.25;100.00;102497.22;5136485;27;20047;-46
2022/02/08 08:09:31;;;;;;;24.63;12.52;;;;;;;7.25;100.00;102499.84;5136389;27;20035;-45
2022/02/08 08:15:44;;;;;;;24.35;11.63;;;;;;;7.31;100.00;102496.19;5135990;27;20059;-55
2022/02/08 08:18:24;;;;;;;25.13;11.82;;;;;;;7.34;100.00;102496.16;5135910;27;20133;-46
2022/02/08 08:20:53;;;;;;;26.98;11.93;;;;;;;7.36;100.00;102507.41;5133070;27;20039;-54
2022/02/08 08:23:22;;;;;;;20.50;11.43;;;;;;;7.34;100.00;102501.38;5132827;27;20043;-55
2022/02/08 08:25:51;;;;;;;23.95;11.32;;;;;;;7.41;100.00;102513.41;5134495;27;20059;-56
2022/02/08 08:28:19;;;;;;;21.13;10.88;;;;;;;7.44;100.00;102510.69;5132385;27;20498;-56
2022/02/08 08:30:47;;;;;;;24.25;11.25;;;;;;;7.44;100.00;102514.19;5133656;27;20062;-56
2022/02/08 08:33:15;;;;;;;23.33;10.70;;;;;;;7.48;100.00;102512.34;5135607;27;20379;-46
2022/02/08 08:36:05;;;;;;;23.63;11.38;;;;;;;7.48;100.00;102509.72;5134911;27;20050;-56
2022/02/08 08:38:34;;;;;;;23.23;11.25;;;;;;;7.51;100.00;102517.53;5132568;27;20076;-56
2022/02/08 08:41:09;;;;;;;19.15;10.65;;;;;;;7.63;100.00;102512.88;5132198;27;20491;-50
2022/02/08 08:43:54;;;;;;;20.42;9.73;;;;;;;7.61;100.00;102521.59;5133153;27;20043;-55
2022/02/08 08:49:31;;;;;;;21.02;9.55;;;;;;;7.70;100.00;102524.88;5135306;27;20447;-56
2022/02/08 08:51:59;;;;;;;17.60;9.55;;;;;;;7.72;100.00;102517.88;5135414;27;20047;-55
2022/02/08 08:54:31;;;;;;;21.35;9.45;;;;;;;7.78;100.00;102520.31;5135246;27;20385;-56
2022/02/08 08:57:00;;;;;;;19.02;9.68;;;;;;;7.81;100.00;102517.59;5131323;27;20501;-56
2022/02/08 08:59:30;;;;;;;22.88;9.63;;;;;;;7.82;100.00;102514.09;5132014;27;20043;-56
2022/02/08 09:01:58;;;;;;;23.27;9.75;;;;;;;7.85;100.00;102518.38;5135193;27;20430;-48
2022/02/08 09:04:33;;;;;;;19.52;8.55;;;;;;;7.87;100.00;102520.06;5134973;27;20051;-44
2022/02/08 09:07:01;;;;;;;20.30;8.80;;;;;;;7.93;100.00;102521.66;5135113;27;20050;-44
2022/02/08 09:09:31;;;;;;;17.73;7.88;;;;;;;7.99;100.00;102510.13;5134153;27;20085;-54
2022/02/08 09:12:12;;;;;;;16.75;7.50;;;;;;;8.08;100.00;102510.75;5131171;27;20409;-44
2022/02/08 09:14:46;;;;;;;21.50;7.63;;;;;;;8.18;100.00;102506.13;5132930;27;20051;-44
2022/02/08 09:20:18;;;;;;;16.47;6.10;;;;;;;8.35;100.00;102497.75;5117307;27;20563;-47
2022/02/08 09:23:11;;;;;;;14.32;6.07;;;;;;;8.52;100.00;102493.81;5134670;27;20051;-56
2022/02/08 09:25:52;;;;;;;16.05;5.40;;;;;;;8.60;100.00;102492.69;5134294;27;20064;-45
2022/02/08 09:28:23;;;;;;;12.93;4.72;;;;;;;8.63;100.00;102491.72;5115912;27;20051;-48
2022/02/08 09:30:58;;;;;;;13.13;5.10;;;;;;;8.72;100.00;102493.19;5134690;27;20043;-56
2022/02/08 09:33:26;;;;;;;11.25;3.83;;;;;;;8.77;100.00;102489.53;5134787;27;20559;-45
2022/02/08 09:35:55;;;;;;;12.90;4.40;;;;;;;8.77;100.00;102489.53;5134505;27;20051;-56
2022/02/08 09:38:29;;;;;;;7.15;3.30;;;;;;;8.87;100.00;102479.59;5134095;27;20059;-55
2022/02/08 09:40:59;;;;;;;9.43;3.00;;;;;;;8.84;100.00;102479.69;5134287;27;20524;-56
2022/02/08 09:43:29;;;;;;;10.70;3.10;;;;;;;9.06;100.00;102473.75;5134064;27;20039;-47
2022/02/08 09:46:00;;;;;;;8.18;2.10;;;;;;;9.19;100.00;102482.06;5133606;27;20120;-49
2022/02/08 09:48:38;;;;;;;8.80;1.80;;;;;;;9.34;100.00;102468.44;5133761;27;20047;-49
2022/02/08 09:51:06;;;;;;;3.97;1.60;;;;;;;9.35;100.00;102480.63;5133938;27;20103;-47
2022/02/08 09:53:36;;;;;;;10.50;1.73;;;;;;;9.35;100.00;102495.56;5134080;27;20108;-45
2022/02/08 09:56:05;;;;;;;6.57;1.30;;;;;;;9.41;100.00;102487.47;5131900;27;20059;-46
2022/02/08 09:58:34;;;;;;;5.53;1.25;;;;;;;9.43;100.00;102489.13;5131099;27;20545;-48
2022/02/08 10:01:09;;;;;;;10.23;1.52;;;;;;;9.50;100.00;102484.50;5132671;27;20047;-48
2022/02/08 10:03:38;;;;;;;8.15;1.20;;;;;;;9.47;100.00;102484.63;5133804;27;20525;-45
2022/02/08 10:06:06;;;;;;;6.93;1.40;;;;;;;9.54;100.00;102494.00;5134250;27;20091;-45
2022/02/08 10:08:34;;;;;;;5.97;1.95;;;;;;;9.61;100.00;102497.28;5134080;27;20067;-46
2022/02/08 10:11:13;;;;;;;10.90;1.60;;;;;;;9.74;100.00;102508.22;5133908;27;20063;-45
2022/02/08 10:13:46;;;;;;;3.10;1.10;;;;;;;9.76;100.00;102506.41;5133747;27;20509;-46
2022/02/08 10:19:28;;;;;;;9.38;1.25;;;;;;;9.82;100.00;102511.44;5133760;27;20043;-45
2022/02/08 10:22:05;;;;;;;10.48;1.80;;;;;;;9.79;100.00;102508.94;5133115;27;20035;-47
2022/02/08 10:24:36;;;;;;;8.00;1.40;;;;;;;9.81;100.00;102521.06;5110006;27;20051;-46
2022/02/08 10:27:19;;;;;;;10.95;1.60;;;;;;;9.84;100.00;102519.28;5130382;27;20039;-44
2022/02/08 10:30:09;;;;;;;8.25;1.48;;;;;;;9.85;100.00;102527.09;5133344;27;20539;-46
2022/02/08 10:38:20;;;;;;;9.27;1.40;;;;;;;9.82;100.00;102546.44;5129677;27;20055;-47
2022/02/08 10:40:48;;;;;;;7.88;1.90;;;;;;;9.83;100.00;102539.44;5113480;27;20062;-48
2022/02/08 10:43:18;;;;;;;10.82;1.50;;;;;;;9.92;100.00;102540.88;5132400;27;20070;-46
2022/02/08 10:45:46;;;;;;;10.57;2.05;;;;;;;9.94;100.00;102533.81;5129327;27;20043;-45
2022/02/08 10:48:22;;;;;;;8.50;1.60;;;;;;;9.88;100.00;102540.13;5130797;27;20043;-47
2022/02/08 10:50:54;;;;;;;7.60;1.30;;;;;;;9.88;100.00;102529.59;5132996;27;20039;-46
2022/02/08 10:53:26;;;;;;;6.10;1.25;;;;;;;9.89;100.00;102528.69;5132880;28;20051;-46
2022/02/08 10:56:01;;;;;;;4.75;1.70;;;;;;;9.94;100.00;102529.41;5131533;28;20047;-45
2022/02/08 10:58:33;;;;;;;7.15;1.35;;;;;;;10.03;100.00;102537.88;5130005;27;20441;-47
2022/02/08 11:01:07;;;;;;;;;;;;;;;9.98;100.00;102514.41;5131960;28;20050;-48
2022/02/08 11:03:44;;;;;;;7.78;1.45;;;;;;;9.98;100.00;102524.91;5133065;28;19925;-46
2022/02/08 11:06:21;;;;;;;9.73;1.60;;;;;;;10.03;100.00;102514.22;5132842;28;20043;-46
2022/02/08 11:09:04;;;;;;;7.05;1.85;;;;;;;10.01;100.00;102508.13;5132611;28;20398;-47
2022/02/08 11:11:50;;;;;;;7.43;1.65;;;;;;;10.07;100.00;102521.06;5127697;28;20050;-44
2022/02/08 11:14:37;;;;;;;8.10;1.20;;;;;;;10.09;100.00;102519.22;5132451;28;20055;-46
2022/02/08 11:20:05;;;;;;;7.07;1.40;;;;;;;10.20;100.00;102527.59;5129706;28;20040;-58
2022/02/08 11:22:49;;;;;;;4.15;0.90;;;;;;;10.28;100.00;102522.91;5128910;28;20047;-57
2022/02/08 11:25:23;;;;;;;5.43;1.10;;;;;;;10.29;100.00;102516.75;5132658;28;20043;-46
2022/02/08 11:31:39;;;;;;;7.82;1.10;;;;;;;10.31;99.70;102508.81;5113773;28;20055;-45
2022/02/08 11:39:00;;;;;;;;;;;;;;;10.34;99.71;102500.78;5133275;28;20043;-57
2022/02/08 11:48:18;;;;;;;9.52;1.60;;;;;;;10.57;96.95;102497.31;5134497;27;20353;-45
2022/02/08 11:53:47;;;;;;;5.32;1.10;;;;;;;10.67;96.83;102489.06;5110063;27;20610;-47
2022/02/08 11:56:38;;;;;;;5.07;1.00;;;;;;;10.71;96.76;102491.50;5109673;28;20047;-46
2022/02/08 11:59:27;;;;;;;8.25;1.83;;;;;;;10.76;95.69;102483.44;5106074;28;20054;-57
2022/02/08 12:02:35;;;;;;;7.13;1.15;;;;;;;10.77;95.80;102483.38;5108459;28;20089;-57
2022/02/08 12:05:08;;;;;;;9.05;1.50;;;;;;;10.79;95.94;102481.53;5105356;28;20052;-57
2022/02/08 12:07:38;;;;;;;6.22;1.30;;;;;;;10.82;94.48;102488.44;5108265;28;20054;-46
2022/02/08 12:10:18;;;;;;;6.38;1.60;;;;;;;10.82;95.19;102488.44;5109712;28;20058;-48
2022/02/08 12:32:42;;;;;;;10.32;1.30;;;;;;;10.98;92.55;102497.44;5108793;28;20123;-50
2022/02/08 12:49:55;;;;;;;12.18;1.83;;;;;;;11.04;91.35;102485.78;5107089;28;20058;-48
2022/02/08 12:58:25;;;;;;;6.45;1.00;;;;;;;11.06;91.38;102496.28;5105114;28;20054;-56
2022/02/08 13:04:12;;;;;;;7.63;1.35;;;;;;;11.12;91.04;102485.47;5038216;28;20049;-57
2022/02/08 14:02:44;;;;;;;7.13;1.38;;;;;;;10.94;91.54;102509.00;5092574;28;20043;-48
2022/02/08 14:08:17;;;;;;;6.45;1.27;;;;;;;10.89;90.76;102505.69;5074183;28;20060;-45
2022/02/08 14:11:09;;;;;;;5.20;1.13;;;;;;;10.92;90.49;102504.72;5092026;28;20098;-44
2022/02/08 14:13:55;;;;;;;4.45;1.85;;;;;;;10.96;90.11;102511.56;5075611;28;20052;-43
2022/02/08 14:16:40;;;;;;;5.28;1.10;;;;;;;10.96;90.17;102511.56;5091384;28;20052;-44
2022/02/08 14:19:28;;;;;;;6.30;1.13;;;;;;;10.93;90.57;102511.69;5089498;28;20123;-43
2022/02/08 14:22:09;;;;;;;5.18;1.00;;;;;;;11.01;90.58;102516.66;5092776;28;20047;-56
2022/02/08 14:25:00;;;;;;;5.88;1.23;;;;;;;10.95;90.78;102510.72;5077812;28;20127;-45
2022/02/08 14:30:41;;;;;;;5.03;1.15;;;;;;;10.90;89.77;102512.69;5080035;28;20082;-56
2022/02/08 14:33:27;;;;;;;4.22;0.95;;;;;;;10.96;91.19;102517.72;5072788;28;20407;-56
2022/02/08 14:36:11;;;;;;;9.70;1.55;;;;;;;10.96;89.79;102514.19;5075588;28;20051;-56
2022/02/08 14:59:13;;;;;;;6.97;1.00;;;;;;;10.83;89.18;102519.13;5074300;28;20040;-44
2022/02/08 15:06:58;;;;;;;8.80;1.40;;;;;;;10.84;89.84;102526.09;5082481;28;20051;-44
2022/02/08 15:09:31;;;;;;;5.65;1.10;;;;;;;10.80;89.71;102532.41;5082476;28;20044;-44
2022/02/08 15:12:08;;;;;;;;;;;;;;;10.79;89.11;102533.31;5080352;28;20048;-45
2022/02/08 15:14:47;;;;;;;6.78;1.17;;;;;;;10.76;89.28;102533.44;5080292;28;20375;-47
2022/02/08 15:17:16;;;;;;;9.40;1.00;;;;;;;10.72;89.72;102542.38;5078248;28;20080;-43
2022/02/08 15:19:46;;;;;;;7.60;1.17;;;;;;;10.65;89.55;102547.00;5069474;28;20122;-57
2022/02/08 15:22:15;;;;;;;11.07;1.30;;;;;;;10.71;89.68;102533.59;5074310;28;20506;-56
2022/02/08 15:24:43;;;;;;;5.85;1.10;;;;;;;10.69;89.58;102535.44;5079315;28;20048;-56
2022/02/08 15:27:13;;;;;;;7.78;1.33;;;;;;;10.59;89.38;102537.59;5074893;28;20048;-45
2022/02/08 15:29:43;;;;;;;4.10;1.05;;;;;;;10.62;89.89;102534.81;5076700;28;20135;-46
2022/02/08 15:32:15;;;;;;;7.53;1.20;;;;;;;10.65;89.85;102545.22;5084220;28;20042;-46
2022/02/08 15:34:43;;;;;;;5.65;1.52;;;;;;;10.65;90.16;102539.97;5087457;28;20040;-44
2022/02/08 15:37:12;;;;;;;9.52;1.20;;;;;;;10.63;89.38;102536.56;5075260;28;20036;-56
2022/02/08 15:39:41;;;;;;;3.70;1.10;;;;;;;10.64;89.79;102532.97;5067831;28;20048;-55
2022/02/08 15:42:09;;;;;;;8.38;1.25;;;;;;;10.58;89.45;102533.22;5076651;28;20044;-56
2022/02/08 15:44:40;;;;;;;4.43;1.00;;;;;;;10.54;89.38;102523.75;5075306;28;20056;-56
2022/02/08 15:47:12;;;;;;;4.03;0.88;;;;;;;10.50;89.42;102524.78;5077846;28;20066;-56